createdAt,value
2023-03-16T00:01:00.605Z,2
2023-03-16T00:02:44.307Z,1
2023-03-16T00:04:28.003Z,2
2023-03-16T00:06:11.721Z,2
2023-03-16T00:07:55.407Z,2
2023-03-16T00:09:39.108Z,1
2023-03-16T00:11:22.832Z,2
2023-03-16T00:13:06.530Z,3
2023-03-16T00:14:50.226Z,2
2023-03-16T00:16:33.914Z,10
2023-03-16T00:18:17.625Z,12
2023-03-16T00:20:01.330Z,11
2023-03-16T00:21:45.024Z,2
2023-03-16T00:23:28.755Z,2
2023-03-16T00:25:12.459Z,2
2023-03-16T00:26:56.129Z,2
2023-03-16T00:28:39.831Z,2
2023-03-16T00:30:23.546Z,2
2023-03-16T00:32:07.233Z,2
2023-03-16T00:33:50.943Z,3
2023-03-16T00:35:34.632Z,2
2023-03-16T00:37:18.341Z,2
2023-03-16T00:39:02.104Z,2
2023-03-16T00:40:45.751Z,2
2023-03-16T00:42:29.459Z,1
2023-03-16T00:44:13.142Z,3
2023-03-16T00:45:56.857Z,2
2023-03-16T00:47:40.596Z,3
2023-03-16T00:49:24.257Z,2
2023-03-16T00:51:07.966Z,2
2023-03-16T00:52:51.687Z,2
2023-03-16T00:54:35.438Z,2
2023-03-16T00:56:19.070Z,2
2023-03-16T00:58:02.865Z,2
2023-03-16T00:59:46.480Z,3
2023-03-16T01:01:30.183Z,2
2023-03-16T01:03:13.891Z,3
2023-03-16T01:04:57.644Z,3
2023-03-16T01:06:41.283Z,2
2023-03-16T01:08:24.986Z,3
2023-03-16T01:10:08.746Z,3
2023-03-16T01:11:52.411Z,2
2023-03-16T01:13:36.091Z,3
2023-03-16T01:15:19.828Z,2
2023-03-16T01:17:03.531Z,2
2023-03-16T01:18:47.252Z,2
2023-03-16T01:20:30.907Z,2
2023-03-16T01:22:14.605Z,3
2023-03-16T01:23:58.315Z,2
2023-03-16T01:25:42.011Z,2
2023-03-16T01:27:25.710Z,1
2023-03-16T01:29:09.418Z,3
2023-03-16T01:30:53.125Z,2
2023-03-16T01:32:36.821Z,3
2023-03-16T01:34:20.542Z,2
2023-03-16T01:36:04.227Z,2
2023-03-16T01:37:47.943Z,2
2023-03-16T01:39:31.654Z,3
2023-03-16T01:41:15.334Z,2
2023-03-16T01:42:59.039Z,2
2023-03-16T01:44:42.762Z,3
2023-03-16T01:46:26.451Z,2
2023-03-16T01:48:10.144Z,2
2023-03-16T01:49:53.845Z,2
2023-03-16T01:51:37.550Z,2
2023-03-16T01:53:21.267Z,2
2023-03-16T01:55:04.955Z,3
2023-03-16T01:56:48.675Z,2
2023-03-16T01:58:32.365Z,3
2023-03-16T02:00:16.067Z,3
2023-03-16T02:01:59.815Z,3
2023-03-16T02:03:43.486Z,3
2023-03-16T02:05:27.185Z,2
2023-03-16T02:07:10.886Z,2
2023-03-16T02:08:54.581Z,2
2023-03-16T02:10:38.296Z,2
2023-03-16T02:12:21.984Z,2
2023-03-16T02:14:05.680Z,2
2023-03-16T02:15:49.386Z,2
2023-03-16T02:17:33.093Z,2
2023-03-16T02:19:16.811Z,3
2023-03-16T02:21:00.496Z,2
2023-03-16T02:22:44.212Z,2
2023-03-16T02:24:27.902Z,2
2023-03-16T02:26:11.605Z,2
2023-03-16T02:27:55.304Z,2
2023-03-16T02:29:39.005Z,2
2023-03-16T02:31:22.716Z,3
2023-03-16T02:33:06.430Z,2
2023-03-16T02:34:50.123Z,2
2023-03-16T02:36:33.815Z,2
2023-03-16T02:38:17.519Z,3
2023-03-16T02:40:01.297Z,2
2023-03-16T02:41:44.931Z,3
2023-03-16T02:43:28.622Z,2
2023-03-16T02:45:12.333Z,2
2023-03-16T02:46:56.032Z,2
2023-03-16T02:48:39.734Z,2
2023-03-16T02:50:23.425Z,2
2023-03-16T02:52:07.135Z,2
2023-03-16T02:53:50.842Z,3
2023-03-16T02:55:34.539Z,2
2023-03-16T02:57:18.244Z,2
2023-03-16T02:59:01.972Z,2
2023-03-16T03:00:45.660Z,2
2023-03-16T03:02:29.367Z,2
2023-03-16T03:04:13.062Z,2
2023-03-16T03:05:56.766Z,2
2023-03-16T03:07:40.465Z,2
2023-03-16T03:09:24.161Z,2
2023-03-16T03:11:07.867Z,3
2023-03-16T03:12:51.571Z,3
2023-03-16T03:14:35.347Z,2
2023-03-16T03:16:18.981Z,2
2023-03-16T03:18:02.679Z,3
2023-03-16T03:19:46.412Z,2
2023-03-16T03:23:13.780Z,3
2023-03-16T03:24:57.486Z,3
2023-03-16T03:26:41.190Z,2
2023-03-16T03:28:24.899Z,2
2023-03-16T03:30:08.606Z,1
2023-03-16T03:31:52.300Z,3
2023-03-16T03:33:35.999Z,2
2023-03-16T03:35:19.715Z,2
2023-03-16T03:37:03.433Z,2
2023-03-16T03:38:47.143Z,3
2023-03-16T03:40:30.817Z,3
2023-03-16T03:42:14.516Z,2
2023-03-16T03:43:58.209Z,2
2023-03-16T03:45:41.925Z,2
2023-03-16T03:47:25.622Z,2
2023-03-16T03:49:09.343Z,2
2023-03-16T03:50:53.029Z,3
2023-03-16T03:52:36.739Z,2
2023-03-16T03:54:20.443Z,2
2023-03-16T03:56:04.138Z,3
2023-03-16T03:57:47.849Z,3
2023-03-16T03:59:31.551Z,2
2023-03-16T04:01:15.254Z,2
2023-03-16T04:02:58.945Z,2
2023-03-16T04:04:42.653Z,3
2023-03-16T04:06:26.358Z,2
2023-03-16T04:08:10.058Z,2
2023-03-16T04:09:53.776Z,3
2023-03-16T04:11:37.462Z,2
2023-03-16T04:13:21.155Z,2
2023-03-16T04:15:04.869Z,3
2023-03-16T04:16:48.578Z,2
2023-03-16T04:18:32.281Z,2
2023-03-16T04:20:15.972Z,2
2023-03-16T04:21:59.678Z,2
2023-03-16T04:23:43.375Z,2
2023-03-16T04:25:27.090Z,2
2023-03-16T04:27:10.779Z,3
2023-03-16T04:28:54.478Z,2
2023-03-16T04:30:38.190Z,2
2023-03-16T04:32:21.911Z,2
2023-03-16T04:34:05.594Z,2
2023-03-16T04:35:49.302Z,3
2023-03-16T04:37:32.995Z,2
2023-03-16T04:39:16.693Z,3
2023-03-16T04:41:00.399Z,2
2023-03-16T04:42:44.127Z,2
2023-03-16T04:44:27.812Z,2
2023-03-16T04:46:11.505Z,3
2023-03-16T04:47:55.205Z,2
2023-03-16T04:49:38.925Z,3
2023-03-16T04:51:22.641Z,2
2023-03-16T04:53:06.328Z,2
2023-03-16T04:54:50.019Z,2
2023-03-16T04:56:33.733Z,3
2023-03-16T04:58:17.433Z,3
2023-03-16T05:00:01.134Z,2
2023-03-16T05:01:44.843Z,3
2023-03-16T05:03:28.538Z,2
2023-03-16T05:05:12.241Z,2
2023-03-16T05:06:55.941Z,3
2023-03-16T05:08:39.647Z,4
2023-03-16T05:10:23.368Z,3
2023-03-16T05:12:07.059Z,5
2023-03-16T05:13:50.755Z,5
2023-03-16T05:15:34.461Z,6
2023-03-16T05:17:18.168Z,8
2023-03-16T05:19:01.865Z,10
2023-03-16T05:20:45.571Z,14
2023-03-16T05:22:29.271Z,19
2023-03-16T05:24:12.989Z,24
2023-03-16T05:25:56.671Z,29
2023-03-16T05:27:40.383Z,34
2023-03-16T05:29:24.100Z,40
2023-03-16T05:31:07.792Z,45
2023-03-16T05:32:51.477Z,51
2023-03-16T05:34:35.179Z,57
2023-03-16T05:36:18.889Z,64
2023-03-16T05:38:02.589Z,75
2023-03-16T05:41:29.999Z,96
2023-03-16T05:43:13.698Z,113
2023-03-16T05:44:57.405Z,136
2023-03-16T05:46:41.099Z,157
2023-03-16T05:48:24.808Z,174
2023-03-16T05:50:08.516Z,185
2023-03-16T05:51:52.219Z,208
2023-03-16T05:53:35.915Z,233
2023-03-16T05:55:19.623Z,224
2023-03-16T05:57:03.324Z,258
2023-03-16T05:58:47.044Z,282
2023-03-16T06:00:30.723Z,264
2023-03-16T06:02:14.422Z,273
2023-03-16T06:03:58.140Z,302
2023-03-16T06:05:41.922Z,339
2023-03-16T06:07:25.538Z,350
2023-03-16T06:09:09.247Z,381
2023-03-16T06:10:52.952Z,386
2023-03-16T06:12:36.655Z,388
2023-03-16T06:14:20.347Z,420
2023-03-16T06:16:04.073Z,478
2023-03-16T06:17:47.777Z,538
2023-03-16T06:19:31.476Z,556
2023-03-16T06:21:15.168Z,517
2023-03-16T06:22:58.866Z,521
2023-03-16T06:24:42.559Z,585
2023-03-16T06:26:26.267Z,581
2023-03-16T06:28:09.967Z,544
2023-03-16T06:29:53.838Z,612
2023-03-16T06:31:37.430Z,601
2023-03-16T06:33:21.157Z,522
2023-03-16T06:35:04.789Z,551
2023-03-16T06:36:48.498Z,647
2023-03-16T06:38:32.253Z,679
2023-03-16T06:40:15.898Z,701
2023-03-16T06:41:59.660Z,735
2023-03-16T06:43:43.323Z,737
2023-03-16T06:45:27.163Z,738
2023-03-16T06:47:10.698Z,738
2023-03-16T06:48:54.413Z,737
2023-03-16T06:50:38.113Z,737
2023-03-16T06:52:21.807Z,737
2023-03-16T06:54:05.509Z,737
2023-03-16T06:55:49.245Z,736
2023-03-16T06:57:32.927Z,736
2023-03-16T06:59:16.696Z,737
2023-03-16T07:01:00.321Z,737
2023-03-16T07:02:44.033Z,737
2023-03-16T07:04:27.731Z,737
2023-03-16T07:06:11.498Z,736
2023-03-16T07:07:55.184Z,737
2023-03-16T07:09:38.836Z,738
2023-03-16T07:11:22.577Z,737
2023-03-16T07:13:06.309Z,737
2023-03-16T07:14:49.959Z,728
2023-03-16T07:16:33.654Z,737
2023-03-16T07:18:17.382Z,737
2023-03-16T07:20:01.045Z,737
2023-03-16T07:21:44.822Z,737
2023-03-16T07:23:28.457Z,737
2023-03-16T07:25:12.148Z,737
2023-03-16T07:26:55.870Z,736
2023-03-16T07:28:39.606Z,736
2023-03-16T07:30:23.267Z,738
2023-03-16T07:32:07.000Z,738
2023-03-16T07:33:50.713Z,737
2023-03-16T07:35:34.403Z,737
2023-03-16T07:37:18.200Z,738
2023-03-16T07:39:01.769Z,738
2023-03-16T07:40:45.593Z,737
2023-03-16T07:42:29.223Z,738
2023-03-16T07:44:12.891Z,737
2023-03-16T07:45:56.608Z,737
2023-03-16T07:47:40.327Z,729
2023-03-16T07:49:24.000Z,737
2023-03-16T07:51:07.759Z,737
2023-03-16T07:52:51.400Z,738
2023-03-16T07:54:35.107Z,736
2023-03-16T07:56:18.829Z,736
2023-03-16T07:58:02.521Z,737
2023-03-16T07:59:46.213Z,737
2023-03-16T08:01:29.924Z,736
2023-03-16T08:03:13.661Z,736
2023-03-16T08:04:57.355Z,737
2023-03-16T08:06:41.040Z,736
2023-03-16T08:08:24.738Z,738
2023-03-16T08:10:08.465Z,738
2023-03-16T08:11:52.135Z,737
2023-03-16T08:13:35.833Z,736
2023-03-16T08:15:19.597Z,737
2023-03-16T08:17:03.279Z,737
2023-03-16T08:18:47.093Z,736
2023-03-16T08:20:30.651Z,735
2023-03-16T08:22:14.355Z,738
2023-03-16T08:23:58.099Z,737
2023-03-16T08:25:41.929Z,736
2023-03-16T08:27:25.468Z,737
2023-03-16T08:29:09.182Z,738
2023-03-16T08:30:52.872Z,737
2023-03-16T08:32:36.579Z,738
2023-03-16T08:34:20.417Z,728
2023-03-16T08:36:04.051Z,737
2023-03-16T08:37:47.819Z,737
2023-03-16T08:39:31.463Z,738
2023-03-16T08:41:15.251Z,737
2023-03-16T08:42:58.792Z,737
2023-03-16T08:44:42.491Z,737
2023-03-16T08:46:26.256Z,738
2023-03-16T08:48:09.910Z,737
2023-03-16T08:49:53.587Z,736
2023-03-16T08:51:37.289Z,738
2023-03-16T08:53:21.055Z,736
2023-03-16T08:55:04.728Z,738
2023-03-16T08:56:48.430Z,736
2023-03-16T08:58:32.102Z,737
2023-03-16T09:00:15.915Z,738
2023-03-16T09:01:59.621Z,738
2023-03-16T09:03:43.199Z,737
2023-03-16T09:05:26.917Z,737
2023-03-16T09:07:10.645Z,737
2023-03-16T09:08:54.311Z,738
2023-03-16T09:10:38.022Z,737
2023-03-16T09:12:21.762Z,737
2023-03-16T09:14:05.502Z,738
2023-03-16T09:15:49.130Z,738
2023-03-16T09:17:32.858Z,737
2023-03-16T09:19:16.584Z,737
2023-03-16T09:21:00.249Z,737
2023-03-16T09:22:43.965Z,738
2023-03-16T09:24:27.825Z,737
2023-03-16T09:26:11.449Z,728
2023-03-16T09:27:55.065Z,737
2023-03-16T09:29:38.915Z,738
2023-03-16T09:31:22.619Z,738
2023-03-16T09:33:06.301Z,737
2023-03-16T09:34:50.056Z,738
2023-03-16T09:36:33.770Z,738
2023-03-16T09:38:17.413Z,738
2023-03-16T09:40:01.147Z,737
2023-03-16T09:41:44.788Z,737
2023-03-16T09:43:28.570Z,738
2023-03-16T09:45:12.194Z,736
2023-03-16T09:46:55.808Z,737
2023-03-16T09:48:39.673Z,737
2023-03-16T09:50:23.195Z,738
2023-03-16T09:52:06.992Z,738
2023-03-16T09:53:50.724Z,738
2023-03-16T09:55:34.424Z,737
2023-03-16T09:57:18.084Z,737
2023-03-16T09:59:01.880Z,737
2023-03-16T10:00:45.452Z,738
2023-03-16T10:02:29.257Z,737
2023-03-16T10:04:12.929Z,737
2023-03-16T10:05:56.664Z,737
2023-03-16T10:07:40.415Z,738
2023-03-16T10:11:07.706Z,737
2023-03-16T10:12:51.475Z,738
2023-03-16T10:14:35.145Z,737
2023-03-16T10:16:18.891Z,738
2023-03-16T10:18:02.623Z,728
2023-03-16T10:19:46.150Z,738
2023-03-16T10:21:29.869Z,738
2023-03-16T10:23:13.691Z,738
2023-03-16T10:24:57.310Z,737
2023-03-16T10:26:41.129Z,738
2023-03-16T10:28:24.889Z,738
2023-03-16T10:30:08.339Z,738
2023-03-16T10:31:52.242Z,737
2023-03-16T10:33:35.912Z,738
2023-03-16T10:35:19.443Z,737
2023-03-16T10:37:03.149Z,739
2023-03-16T10:38:47.000Z,738
2023-03-16T10:40:30.584Z,737
2023-03-16T10:42:14.463Z,738
2023-03-16T10:43:58.157Z,738
2023-03-16T10:45:41.709Z,737
2023-03-16T10:47:25.506Z,737
2023-03-16T10:49:09.298Z,737
2023-03-16T10:50:52.980Z,729
2023-03-16T10:52:36.643Z,738
2023-03-16T10:54:20.378Z,737
2023-03-16T10:56:03.886Z,739
2023-03-16T10:57:47.577Z,738
2023-03-16T10:59:31.482Z,736
2023-03-16T11:01:15.194Z,738
2023-03-16T11:02:58.911Z,738
2023-03-16T11:04:42.602Z,738
2023-03-16T11:06:26.255Z,738
2023-03-16T11:08:09.802Z,738
2023-03-16T11:09:53.648Z,728
2023-03-16T11:11:37.234Z,738
2023-03-16T11:13:21.050Z,738
2023-03-16T11:15:04.605Z,737
2023-03-16T11:16:48.462Z,737
2023-03-16T11:18:32.191Z,738
2023-03-16T11:20:15.720Z,738
2023-03-16T11:21:59.609Z,738
2023-03-16T11:23:43.288Z,737
2023-03-16T11:25:26.829Z,738
2023-03-16T11:27:10.572Z,738
2023-03-16T11:28:54.427Z,734
2023-03-16T11:30:37.942Z,738
2023-03-16T11:32:21.834Z,738
2023-03-16T11:34:05.503Z,738
2023-03-16T11:35:49.053Z,738
2023-03-16T11:37:32.757Z,738
2023-03-16T11:39:16.643Z,737
2023-03-16T11:41:00.348Z,738
2023-03-16T11:42:44.081Z,738
2023-03-16T11:44:27.556Z,738
2023-03-16T11:46:11.410Z,737
2023-03-16T11:47:55.145Z,738
2023-03-16T11:49:38.769Z,739
2023-03-16T11:51:22.593Z,738
2023-03-16T11:53:06.250Z,738
2023-03-16T11:54:49.941Z,738
2023-03-16T11:56:33.638Z,739
2023-03-16T11:58:17.344Z,739
2023-03-16T12:00:01.081Z,738
2023-03-16T12:01:44.646Z,737
2023-03-16T12:03:28.277Z,739
2023-03-16T12:05:12.117Z,738
2023-03-16T12:06:55.853Z,738
2023-03-16T12:08:39.647Z,738
2023-03-16T12:10:23.088Z,738
2023-03-16T12:12:06.938Z,739
2023-03-16T12:13:50.651Z,738
2023-03-16T12:15:34.200Z,729
2023-03-16T12:17:17.901Z,739
2023-03-16T12:19:01.783Z,738
2023-03-16T12:20:45.524Z,738
2023-03-16T12:22:29.183Z,738
2023-03-16T12:24:12.853Z,738
2023-03-16T12:25:56.615Z,739
2023-03-16T12:27:40.186Z,739
2023-03-16T12:29:23.821Z,729
2023-03-16T12:31:07.532Z,739
2023-03-16T12:32:51.318Z,738
2023-03-16T12:34:34.929Z,739
2023-03-16T12:36:18.626Z,738
2023-03-16T12:38:02.333Z,738
2023-03-16T12:39:46.033Z,739
2023-03-16T12:41:29.737Z,739
2023-03-16T12:43:13.443Z,729
2023-03-16T12:44:57.153Z,738
2023-03-16T12:46:40.897Z,738
2023-03-16T12:48:24.540Z,739
2023-03-16T12:50:08.305Z,739
2023-03-16T12:51:51.999Z,738
2023-03-16T12:53:35.655Z,738
2023-03-16T12:55:19.388Z,739
2023-03-16T12:57:03.199Z,738
2023-03-16T12:58:46.756Z,738
2023-03-16T13:00:30.461Z,739
2023-03-16T13:02:14.214Z,739
2023-03-16T13:03:58.072Z,739
2023-03-16T13:05:41.574Z,738
2023-03-16T13:07:25.268Z,738
2023-03-16T13:09:08.982Z,738
2023-03-16T13:10:52.687Z,739
2023-03-16T13:12:36.372Z,739
2023-03-16T13:14:20.082Z,738
2023-03-16T13:16:03.847Z,736
2023-03-16T13:17:47.484Z,739
2023-03-16T13:19:31.188Z,739
2023-03-16T13:21:14.909Z,738
2023-03-16T13:22:58.632Z,738
2023-03-16T13:24:42.300Z,739
2023-03-16T13:26:26.092Z,738
2023-03-16T13:28:09.771Z,738
2023-03-16T13:29:53.515Z,734
2023-03-16T13:31:37.146Z,739
2023-03-16T13:33:20.829Z,739
2023-03-16T13:35:04.605Z,739
2023-03-16T13:36:48.234Z,738
2023-03-16T13:38:31.950Z,739
2023-03-16T13:40:15.615Z,739
2023-03-16T13:41:59.325Z,738
2023-03-16T13:43:43.070Z,729
2023-03-16T13:45:26.726Z,738
2023-03-16T13:47:10.438Z,739
2023-03-16T13:48:54.145Z,739
2023-03-16T13:50:37.836Z,739
2023-03-16T13:52:21.545Z,739
2023-03-16T13:54:05.256Z,738
2023-03-16T13:55:48.949Z,739
2023-03-16T13:57:32.649Z,737
2023-03-16T13:59:16.361Z,738
2023-03-16T14:01:00.059Z,738
2023-03-16T14:02:43.754Z,739
2023-03-16T14:04:27.459Z,738
2023-03-16T14:06:11.176Z,738
2023-03-16T14:07:54.862Z,739
2023-03-16T14:09:38.562Z,739
2023-03-16T14:13:05.998Z,738
2023-03-16T14:14:49.672Z,737
2023-03-16T14:16:33.374Z,740
2023-03-16T14:18:17.086Z,740
2023-03-16T14:20:00.841Z,738
2023-03-16T14:21:44.515Z,738
2023-03-16T14:23:28.207Z,739
2023-03-16T14:25:11.904Z,739
2023-03-16T14:26:55.590Z,738
2023-03-16T14:28:39.293Z,739
2023-03-16T14:30:23.005Z,731
2023-03-16T14:32:06.789Z,739
2023-03-16T14:33:50.408Z,738
2023-03-16T14:35:34.109Z,738
2023-03-16T14:37:17.797Z,740
2023-03-16T14:39:01.508Z,739
2023-03-16T14:40:45.236Z,739
2023-03-16T14:42:28.933Z,738
2023-03-16T14:44:12.608Z,738
2023-03-16T14:45:56.322Z,739
2023-03-16T14:47:40.026Z,738
2023-03-16T14:49:23.740Z,739
2023-03-16T14:51:07.436Z,739
2023-03-16T14:52:51.140Z,739
2023-03-16T14:54:35.207Z,740
2023-03-16T14:56:18.533Z,738
2023-03-16T14:58:02.244Z,738
2023-03-16T14:59:46.035Z,739
2023-03-16T15:01:29.679Z,739
2023-03-16T15:03:13.596Z,738
2023-03-16T15:04:57.046Z,739
2023-03-16T15:06:40.928Z,739
2023-03-16T15:08:24.529Z,739
2023-03-16T15:10:08.246Z,739
2023-03-16T15:11:51.862Z,738
2023-03-16T15:13:35.566Z,739
2023-03-16T15:15:19.259Z,739
2023-03-16T15:17:03.031Z,737
2023-03-16T15:18:46.672Z,739
2023-03-16T15:20:30.377Z,739
2023-03-16T15:22:14.072Z,739
2023-03-16T15:23:57.798Z,738
2023-03-16T15:25:41.484Z,739
2023-03-16T15:27:25.175Z,739
2023-03-16T15:29:08.939Z,739
2023-03-16T15:30:52.747Z,729
2023-03-16T15:32:36.291Z,737
2023-03-16T15:34:19.998Z,738
2023-03-16T15:36:03.750Z,740
2023-03-16T15:37:47.399Z,739
2023-03-16T15:39:31.128Z,738
2023-03-16T15:41:14.890Z,739
2023-03-16T15:42:58.534Z,739
2023-03-16T15:44:42.209Z,739
2023-03-16T15:46:25.898Z,739
2023-03-16T15:48:09.603Z,738
2023-03-16T15:49:53.315Z,738
2023-03-16T15:51:37.007Z,739
2023-03-16T15:53:20.721Z,739
2023-03-16T15:55:04.422Z,738
2023-03-16T15:56:48.190Z,740
2023-03-16T15:58:31.958Z,739
2023-03-16T16:00:15.625Z,739
2023-03-16T16:01:59.342Z,739
2023-03-16T16:03:42.918Z,738
2023-03-16T16:05:26.735Z,740
2023-03-16T16:07:10.336Z,739
2023-03-16T16:08:54.111Z,737
2023-03-16T16:10:37.814Z,738
2023-03-16T16:12:21.436Z,738
2023-03-16T16:14:05.291Z,739
2023-03-16T16:15:48.965Z,738
2023-03-16T16:17:32.545Z,738
2023-03-16T16:19:16.434Z,739
2023-03-16T16:21:00.144Z,738
2023-03-16T16:22:43.934Z,729
2023-03-16T16:24:27.361Z,738
2023-03-16T16:26:11.138Z,740
2023-03-16T16:27:54.991Z,739
2023-03-16T16:29:38.648Z,738
2023-03-16T16:31:22.354Z,738
2023-03-16T16:33:06.032Z,664
2023-03-16T16:34:49.712Z,631
2023-03-16T16:36:33.383Z,594
2023-03-16T16:38:17.158Z,564
2023-03-16T16:40:00.807Z,537
2023-03-16T16:41:44.423Z,510
2023-03-16T16:43:28.251Z,482
2023-03-16T16:45:11.796Z,455
2023-03-16T16:46:55.504Z,431
2023-03-16T16:48:39.199Z,405
2023-03-16T16:50:22.957Z,383
2023-03-16T16:52:06.593Z,362
2023-03-16T16:53:50.303Z,342
2023-03-16T16:55:34.017Z,325
2023-03-16T16:57:17.721Z,312
2023-03-16T16:59:01.428Z,306
2023-03-16T17:00:45.158Z,314
2023-03-16T17:02:28.817Z,345
2023-03-16T17:04:12.520Z,506
2023-03-16T17:05:56.217Z,738
2023-03-16T17:07:39.927Z,738
2023-03-16T17:09:23.634Z,738
2023-03-16T17:11:07.332Z,738
2023-03-16T17:12:51.040Z,738
2023-03-16T17:14:34.874Z,739
2023-03-16T17:16:18.439Z,503
2023-03-16T17:18:02.142Z,263
2023-03-16T17:19:45.844Z,179
2023-03-16T17:21:29.560Z,130
2023-03-16T17:23:13.247Z,96
2023-03-16T17:24:57.034Z,72
2023-03-16T17:26:40.650Z,55
2023-03-16T17:28:24.368Z,43
2023-03-16T17:30:08.098Z,44
2023-03-16T17:31:51.761Z,37
2023-03-16T17:33:35.468Z,30
2023-03-16T17:35:19.160Z,25
2023-03-16T17:37:02.909Z,23
2023-03-16T17:38:46.567Z,20
2023-03-16T17:40:30.271Z,18
2023-03-16T17:42:13.982Z,17
2023-03-16T17:43:57.703Z,15
2023-03-16T17:45:41.407Z,13
2023-03-16T17:49:08.781Z,12
2023-03-16T17:50:52.518Z,20
2023-03-16T17:52:36.261Z,20
2023-03-16T17:54:19.890Z,20
2023-03-16T17:56:03.587Z,19
2023-03-16T17:57:47.294Z,20
2023-03-16T18:01:14.801Z,19
2023-03-16T18:02:58.394Z,19
2023-03-16T18:04:42.107Z,19
2023-03-16T18:06:25.801Z,19
2023-03-16T18:08:09.503Z,19
2023-03-16T18:09:53.225Z,18
2023-03-16T18:11:36.930Z,18
2023-03-16T18:13:20.639Z,2
2023-03-16T18:15:04.308Z,1
2023-03-16T18:16:48.113Z,2
2023-03-16T18:18:31.724Z,0
2023-03-16T18:20:15.419Z,1
2023-03-16T18:21:59.130Z,1
2023-03-16T18:23:42.981Z,1
2023-03-16T18:25:26.537Z,1
2023-03-16T18:27:10.441Z,1
2023-03-16T18:28:53.927Z,1
2023-03-16T18:30:37.644Z,1
2023-03-16T18:32:21.360Z,1
2023-03-16T18:34:05.064Z,1
2023-03-16T18:35:48.738Z,1
2023-03-16T18:37:32.481Z,1
2023-03-16T18:39:16.154Z,2
2023-03-16T18:40:59.928Z,1
2023-03-16T18:42:43.558Z,1
2023-03-16T18:44:27.295Z,1
2023-03-16T18:46:11.007Z,1
2023-03-16T18:47:54.688Z,10
2023-03-16T18:49:38.380Z,11
2023-03-16T18:51:22.071Z,11
2023-03-16T18:53:05.920Z,11
2023-03-16T18:54:49.488Z,11
2023-03-16T18:56:33.188Z,11
2023-03-16T18:58:16.881Z,10
2023-03-16T19:00:00.590Z,10
2023-03-16T19:01:44.287Z,10
2023-03-16T19:03:27.990Z,1
2023-03-16T19:05:11.710Z,3
2023-03-16T19:06:55.412Z,1
2023-03-16T19:08:39.123Z,1
2023-03-16T19:10:22.800Z,2
2023-03-16T19:12:06.551Z,1
2023-03-16T19:13:50.213Z,1
2023-03-16T19:15:33.921Z,1
2023-03-16T19:17:17.616Z,1
2023-03-16T19:19:01.338Z,1
2023-03-16T19:20:45.007Z,2
2023-03-16T19:22:28.704Z,1
2023-03-16T19:24:12.404Z,2
2023-03-16T19:25:56.117Z,1
2023-03-16T19:27:39.837Z,1
2023-03-16T19:29:23.519Z,2
2023-03-16T19:31:07.238Z,1
2023-03-16T19:32:50.926Z,2
2023-03-16T19:34:34.627Z,1
2023-03-16T19:36:18.331Z,2
2023-03-16T19:38:02.052Z,2
2023-03-16T19:39:45.734Z,1
2023-03-16T19:41:29.439Z,1
2023-03-16T19:43:13.141Z,2
2023-03-16T19:44:56.854Z,1
2023-03-16T19:46:40.555Z,1
2023-03-16T19:48:24.252Z,1
2023-03-16T19:50:07.958Z,1
2023-03-16T19:51:51.722Z,1
2023-03-16T19:53:35.428Z,2
2023-03-16T19:55:19.103Z,2
2023-03-16T19:57:02.768Z,1
2023-03-16T19:58:46.501Z,1
2023-03-16T20:00:30.174Z,1
2023-03-16T20:02:13.880Z,2
2023-03-16T20:03:57.573Z,2
2023-03-16T20:05:41.302Z,2
2023-03-16T20:07:24.983Z,1
2023-03-16T20:09:08.989Z,0
2023-03-16T20:10:52.384Z,1
2023-03-16T20:12:36.079Z,1
2023-03-16T20:14:19.798Z,1
2023-03-16T20:16:03.498Z,1
2023-03-16T20:17:47.190Z,1
2023-03-16T20:19:30.911Z,1
2023-03-16T20:21:14.598Z,1
2023-03-16T20:24:42.005Z,3
2023-03-16T20:26:25.696Z,2
2023-03-16T20:28:09.464Z,3
2023-03-16T20:29:53.111Z,2
2023-03-16T20:31:36.869Z,2
2023-03-16T20:33:20.507Z,2
2023-03-16T20:35:04.255Z,3
2023-03-16T20:36:47.922Z,2
2023-03-16T20:38:31.631Z,1
2023-03-16T20:40:15.328Z,1
2023-03-16T20:41:59.029Z,1
2023-03-16T20:43:42.732Z,2
2023-03-16T20:45:26.557Z,3
2023-03-16T20:47:10.193Z,3
2023-03-16T20:48:53.836Z,2
2023-03-16T20:50:37.532Z,3
2023-03-16T20:52:21.242Z,3
2023-03-16T20:54:04.994Z,2
2023-03-16T20:55:48.788Z,2
2023-03-16T20:57:32.455Z,2
2023-03-16T20:59:16.053Z,2
2023-03-16T21:00:59.776Z,2
2023-03-16T21:02:43.449Z,2
2023-03-16T21:04:27.156Z,1
2023-03-16T21:06:10.876Z,2
2023-03-16T21:07:54.630Z,1
2023-03-16T21:09:38.273Z,2
2023-03-16T21:11:21.981Z,1
2023-03-16T21:13:05.700Z,2
2023-03-16T21:14:49.375Z,2
2023-03-16T21:16:33.097Z,1
2023-03-16T21:18:16.770Z,2
2023-03-16T21:20:00.498Z,66
2023-03-16T21:21:44.195Z,2
2023-03-16T21:23:27.898Z,11
2023-03-16T21:25:11.613Z,2
2023-03-16T21:26:55.333Z,1
2023-03-16T21:28:39.051Z,2
2023-03-16T21:30:22.705Z,3
2023-03-16T21:32:06.405Z,2
2023-03-16T21:33:50.194Z,1
2023-03-16T21:35:33.956Z,1
2023-03-16T21:37:17.558Z,1
2023-03-16T21:39:01.290Z,1
2023-03-16T21:40:44.940Z,1
2023-03-16T21:42:28.650Z,1
2023-03-16T21:44:12.345Z,1
2023-03-16T21:45:56.131Z,2
2023-03-16T21:47:39.737Z,1
2023-03-16T21:49:23.554Z,1
2023-03-16T21:51:07.203Z,2
2023-03-16T21:52:50.856Z,1
2023-03-16T21:54:34.661Z,1
2023-03-16T21:56:18.327Z,2
2023-03-16T21:58:01.944Z,0
2023-03-16T21:59:45.650Z,1
2023-03-16T22:01:29.355Z,1
2023-03-16T22:03:13.058Z,1
2023-03-16T22:04:56.783Z,1
2023-03-16T22:06:40.480Z,2
2023-03-16T22:08:24.178Z,1
2023-03-16T22:10:07.955Z,2
2023-03-16T22:11:51.562Z,1
2023-03-16T22:13:35.453Z,1
2023-03-16T22:15:19.054Z,1
2023-03-16T22:17:02.746Z,2
2023-03-16T22:18:46.371Z,1
2023-03-16T22:20:30.072Z,2
2023-03-16T22:22:13.886Z,1
2023-03-16T22:23:57.526Z,2
2023-03-16T22:25:41.182Z,1
2023-03-16T22:27:24.942Z,1
2023-03-16T22:29:08.587Z,1
2023-03-16T22:30:52.293Z,1
2023-03-16T22:32:35.992Z,1
2023-03-16T22:34:19.695Z,1
2023-03-16T22:36:03.483Z,1
2023-03-16T22:37:47.097Z,1
2023-03-16T22:39:30.824Z,0
2023-03-16T22:41:14.503Z,2
2023-03-16T22:42:58.208Z,2
2023-03-16T22:44:41.909Z,1
2023-03-16T22:46:25.610Z,2
2023-03-16T22:48:09.350Z,2
2023-03-16T22:49:53.063Z,1
2023-03-16T22:51:36.745Z,1
2023-03-16T22:53:20.444Z,9
2023-03-16T22:55:04.155Z,10
2023-03-16T22:56:47.945Z,9
2023-03-16T22:58:31.596Z,10
2023-03-16T23:00:15.247Z,10
2023-03-16T23:01:58.938Z,1
2023-03-16T23:03:42.639Z,1
2023-03-16T23:05:26.460Z,1
2023-03-16T23:07:10.047Z,2
2023-03-16T23:08:53.751Z,2
2023-03-16T23:10:37.453Z,1
2023-03-16T23:12:21.172Z,2
2023-03-16T23:14:04.875Z,1
2023-03-16T23:15:48.553Z,1
2023-03-16T23:17:32.265Z,2
2023-03-16T23:19:15.974Z,1
2023-03-16T23:20:59.680Z,1
2023-03-16T23:22:43.377Z,1
2023-03-16T23:24:27.108Z,1
2023-03-16T23:26:10.777Z,1
2023-03-16T23:27:54.484Z,1
2023-03-16T23:29:38.197Z,1
2023-03-16T23:31:21.890Z,1
2023-03-16T23:33:05.670Z,2
2023-03-16T23:34:49.301Z,1
2023-03-16T23:36:32.993Z,1
2023-03-16T23:38:16.706Z,9
2023-03-16T23:40:00.423Z,10
2023-03-16T23:41:44.141Z,11
2023-03-16T23:43:27.800Z,2
2023-03-16T23:45:11.543Z,2
2023-03-16T23:46:55.306Z,1
2023-03-16T23:48:38.907Z,1
2023-03-16T23:50:22.620Z,10
2023-03-16T23:52:06.468Z,1
2023-03-16T23:53:50.028Z,2
2023-03-16T23:55:33.729Z,1
2023-03-16T23:57:17.479Z,2
2023-03-16T23:59:01.120Z,1
